createdAt,value
2022-08-18T00:00:06.473Z,98899.31
2022-08-18T00:02:41.725Z,98889.16
2022-08-18T00:05:13.143Z,98883.84
2022-08-18T00:07:47.060Z,98876.94
2022-08-18T00:10:18.706Z,98878.38
2022-08-18T00:12:47.370Z,98884.41
2022-08-18T00:15:17.206Z,98889.09
2022-08-18T00:17:47.427Z,98895.94
2022-08-18T00:20:18.545Z,98900.84
2022-08-18T00:22:47.056Z,98902.97
2022-08-18T00:25:17.529Z,98898.50
2022-08-18T00:27:45.637Z,98898.69
2022-08-18T00:30:16.968Z,98908.97
2022-08-18T00:32:49.454Z,98916.03
2022-08-18T00:35:21.015Z,98912.72
2022-08-18T00:37:49.929Z,98912.09
2022-08-18T00:40:20.522Z,98920.47
2022-08-18T00:42:52.116Z,98920.94
2022-08-18T00:45:24.020Z,98919.22
2022-08-18T00:47:54.532Z,98912.59
2022-08-18T00:50:27.335Z,98926.78
2022-08-18T00:53:00.321Z,98912.31
2022-08-18T00:55:30.954Z,98907.56
2022-08-18T00:58:03.780Z,98920.94
2022-08-18T01:00:33.270Z,98927.56
2022-08-18T01:03:06.365Z,98919.75
2022-08-18T01:05:40.934Z,98925.59
2022-08-18T01:08:11.974Z,98939.19
2022-08-18T01:10:40.708Z,98931.59
2022-08-18T01:13:09.067Z,98931.19
2022-08-18T01:15:37.961Z,98932.34
2022-08-18T01:18:29.977Z,98925.84
2022-08-18T01:21:19.671Z,98922.75
2022-08-18T01:23:52.008Z,98936.97
2022-08-18T01:26:21.891Z,98935.56
2022-08-18T01:28:50.800Z,98935.88
2022-08-18T01:31:53.244Z,98944.19
2022-08-18T01:34:24.889Z,98933.94
2022-08-18T01:36:54.244Z,98945.00
2022-08-18T01:41:22.005Z,98933.97
2022-08-18T01:42:12.782Z,98928.72
2022-08-18T01:44:41.830Z,98929.19
2022-08-18T01:47:10.865Z,98932.63
2022-08-18T01:49:39.864Z,98920.38
2022-08-18T01:52:08.248Z,98914.75
2022-08-18T01:54:37.751Z,98910.06
2022-08-18T01:57:06.213Z,98921.91
2022-08-18T01:59:35.370Z,98912.66
2022-08-18T02:02:03.680Z,98902.00
2022-08-18T02:04:36.162Z,98904.34
2022-08-18T02:07:07.756Z,98902.44
2022-08-18T02:09:39.475Z,98893.94
2022-08-18T02:12:09.203Z,98894.66
2022-08-18T02:14:38.057Z,98894.66
2022-08-18T02:17:08.949Z,98891.41
2022-08-18T02:19:38.601Z,98883.91
2022-08-18T02:22:08.093Z,98883.38
2022-08-18T02:24:37.720Z,98881.41
2022-08-18T02:27:06.799Z,98881.50
2022-08-18T02:29:36.638Z,98878.19
2022-08-18T02:32:05.513Z,98884.03
2022-08-18T02:34:33.785Z,98880.03
2022-08-18T02:37:02.139Z,98886.97
2022-08-18T02:39:30.743Z,98888.09
2022-08-18T02:42:00.316Z,98878.69
2022-08-18T02:44:32.180Z,98886.53
2022-08-18T02:47:00.500Z,98895.31
2022-08-18T02:49:29.144Z,98895.56
2022-08-18T02:51:57.322Z,98885.16
2022-08-18T02:54:26.688Z,98876.47
2022-08-18T02:59:27.955Z,98882.19
2022-08-18T03:02:00.222Z,98875.66
2022-08-18T03:04:32.617Z,98877.81
2022-08-18T03:07:02.784Z,98880.53
2022-08-18T03:09:31.671Z,98870.13
2022-08-18T03:11:59.973Z,98874.09
2022-08-18T03:14:29.672Z,98868.22
2022-08-18T03:16:58.314Z,98863.06
2022-08-18T03:19:28.784Z,98866.38
2022-08-18T03:21:59.427Z,98866.66
2022-08-18T03:24:32.244Z,98879.00
2022-08-18T03:27:02.232Z,98881.06
2022-08-18T03:29:32.942Z,98877.25
2022-08-18T03:32:01.988Z,98882.31
2022-08-18T03:34:30.296Z,98889.53
2022-08-18T03:36:58.493Z,98888.34
2022-08-18T03:39:28.090Z,98874.59
2022-08-18T03:42:00.947Z,98866.84
2022-08-18T03:44:33.404Z,98870.47
2022-08-18T03:47:03.098Z,98871.16
2022-08-18T03:49:32.457Z,98873.31
2022-08-18T03:52:01.714Z,98873.63
2022-08-18T03:54:32.296Z,98871.91
2022-08-18T03:59:47.759Z,98866.38
2022-08-18T04:02:15.854Z,98863.88
2022-08-18T04:04:44.073Z,98871.31
2022-08-18T04:07:14.648Z,98883.22
2022-08-18T04:09:43.437Z,98883.22
2022-08-18T04:12:16.184Z,98887.25
2022-08-18T04:14:48.980Z,98892.91
2022-08-18T04:17:20.434Z,98898.50
2022-08-18T04:19:48.793Z,98894.72
2022-08-18T04:22:18.565Z,98889.09
2022-08-18T04:24:47.824Z,98897.38
2022-08-18T04:27:18.968Z,98903.63
2022-08-18T04:29:49.084Z,98909.41
2022-08-18T04:32:17.328Z,98914.28
2022-08-18T04:34:45.508Z,98905.72
2022-08-18T04:37:15.535Z,98912.44
2022-08-18T04:39:46.902Z,98905.13
2022-08-18T04:42:15.756Z,98912.44
2022-08-18T04:44:43.965Z,98916.34
2022-08-18T04:47:13.619Z,98924.44
2022-08-18T04:52:40.141Z,98930.50
2022-08-18T04:55:10.403Z,98925.84
2022-08-18T04:57:39.124Z,98932.28
2022-08-18T05:00:09.044Z,98930.31
2022-08-18T05:02:39.670Z,98933.16
2022-08-18T05:05:08.998Z,98919.72
2022-08-18T05:07:37.078Z,98922.63
2022-08-18T05:10:06.885Z,98938.84
2022-08-18T05:12:35.395Z,98950.31
2022-08-18T05:15:03.514Z,98959.56
2022-08-18T05:17:31.723Z,98947.00
2022-08-18T05:20:04.622Z,98953.38
2022-08-18T05:22:39.209Z,98945.06
2022-08-18T05:27:54.199Z,98955.09
2022-08-18T05:30:22.594Z,98959.16
2022-08-18T05:32:50.959Z,98951.25
2022-08-18T05:35:24.213Z,98956.19
2022-08-18T05:38:18.229Z,98958.59
2022-08-18T05:40:47.776Z,98957.78
2022-08-18T05:43:16.873Z,98961.41
2022-08-18T05:45:44.954Z,98970.19
2022-08-18T05:48:13.068Z,98958.44
2022-08-18T05:50:43.103Z,98964.25
2022-08-18T05:53:14.587Z,98948.84
2022-08-18T05:56:05.035Z,98947.16
2022-08-18T05:58:35.406Z,98949.53
2022-08-18T06:01:06.201Z,98946.97
2022-08-18T06:03:45.481Z,98944.75
2022-08-18T06:06:19.940Z,98954.41
2022-08-18T06:08:54.265Z,98953.66
2022-08-18T06:11:23.064Z,98958.50
2022-08-18T06:13:59.634Z,98958.19
2022-08-18T06:16:44.544Z,98960.16
2022-08-18T06:19:33.589Z,98960.97
2022-08-18T06:22:12.935Z,98953.31
2022-08-18T06:24:47.241Z,98963.41
2022-08-18T06:27:20.835Z,98966.66
2022-08-18T06:29:58.922Z,98968.94
2022-08-18T06:32:38.598Z,98974.59
2022-08-18T06:35:15.527Z,98989.22
2022-08-18T06:38:08.840Z,98989.72
2022-08-18T06:40:37.458Z,98990.75
2022-08-18T06:43:10.011Z,98996.94
2022-08-18T06:45:42.230Z,98999.94
2022-08-18T06:48:15.833Z,99002.19
2022-08-18T06:50:50.235Z,99012.09
2022-08-18T06:53:28.082Z,99011.59
2022-08-18T06:55:56.764Z,99020.00
2022-08-18T06:58:30.128Z,99016.38
2022-08-18T07:01:04.152Z,99022.00
2022-08-18T07:03:44.334Z,99018.50
2022-08-18T07:06:26.508Z,99032.41
2022-08-18T07:08:57.670Z,99032.00
2022-08-18T07:11:28.113Z,99049.50
2022-08-18T07:14:15.645Z,99045.44
2022-08-18T07:16:58.387Z,99046.03
2022-08-18T07:19:31.246Z,99053.25
2022-08-18T07:22:03.768Z,99055.25
2022-08-18T07:24:37.485Z,99061.16
2022-08-18T07:27:08.459Z,99056.13
2022-08-18T07:29:38.711Z,99057.44
2022-08-18T07:32:21.153Z,99069.06
2022-08-18T07:34:53.776Z,99067.53
2022-08-18T07:37:28.541Z,99067.31
2022-08-18T07:40:03.332Z,99065.63
2022-08-18T07:42:54.310Z,99065.84
2022-08-18T07:45:32.997Z,99073.28
2022-08-18T07:48:27.344Z,99057.50
2022-08-18T07:51:06.648Z,99056.13
2022-08-18T07:53:55.927Z,99042.50
2022-08-18T07:56:34.195Z,99040.78
2022-08-18T07:59:06.473Z,99050.97
2022-08-18T08:01:41.083Z,99058.69
2022-08-18T08:04:25.723Z,99061.44
2022-08-18T08:07:22.841Z,99066.63
2022-08-18T08:09:53.675Z,99062.81
2022-08-18T08:12:34.778Z,99065.06
2022-08-18T08:15:10.179Z,99055.50
2022-08-18T08:17:44.228Z,99051.06
2022-08-18T08:20:21.297Z,99057.44
2022-08-18T08:23:04.099Z,99060.19
2022-08-18T08:25:47.244Z,99055.81
2022-08-18T08:28:25.977Z,99057.84
2022-08-18T08:31:33.399Z,99053.16
2022-08-18T08:34:04.062Z,99043.84
2022-08-18T08:36:37.522Z,99050.19
2022-08-18T08:39:10.950Z,99041.38
2022-08-18T08:41:43.356Z,99038.63
2022-08-18T08:44:17.339Z,99030.44
2022-08-18T08:46:47.613Z,99011.22
2022-08-18T08:49:27.730Z,99017.00
2022-08-18T08:51:59.116Z,99000.81
2022-08-18T08:54:30.697Z,98991.47
2022-08-18T08:57:01.313Z,98979.09
2022-08-18T08:59:30.869Z,98965.91
2022-08-18T09:02:15.971Z,98962.56
2022-08-18T09:05:08.995Z,98961.72
2022-08-18T09:07:51.371Z,98958.56
2022-08-18T09:10:34.156Z,98950.69
2022-08-18T09:13:14.906Z,98950.97
2022-08-18T09:16:11.040Z,98942.16
2022-08-18T09:18:54.024Z,98939.63
2022-08-18T09:21:35.505Z,98945.63
2022-08-18T09:24:11.386Z,98947.81
2022-08-18T09:26:45.092Z,98952.03
2022-08-18T09:29:23.684Z,98956.94
2022-08-18T09:32:26.193Z,98959.59
2022-08-18T09:35:05.521Z,98958.63
2022-08-18T09:37:45.176Z,98953.50
2022-08-18T09:41:01.022Z,98959.03
2022-08-18T09:43:36.678Z,98957.88
2022-08-18T09:46:06.057Z,98961.66
2022-08-18T09:48:35.667Z,98958.81
2022-08-18T09:51:35.954Z,98947.94
2022-08-18T09:54:21.699Z,98950.00
2022-08-18T09:57:19.181Z,98951.91
2022-08-18T10:00:26.545Z,98942.97
2022-08-18T10:03:12.541Z,98937.81
2022-08-18T10:05:42.934Z,98938.13
2022-08-18T10:08:42.733Z,98947.91
2022-08-18T10:11:27.572Z,98945.91
2022-08-18T10:14:07.917Z,98947.41
2022-08-18T10:19:40.438Z,98952.06
2022-08-18T10:22:09.941Z,98950.34
2022-08-18T10:24:48.287Z,98941.19
2022-08-18T10:27:50.809Z,98936.88
2022-08-18T10:31:06.155Z,98933.22
2022-08-18T10:34:00.170Z,98926.31
2022-08-18T10:36:50.521Z,98920.19
2022-08-18T10:39:21.514Z,98907.72
2022-08-18T10:42:14.858Z,98897.53
2022-08-18T10:44:45.135Z,98891.09
2022-08-18T10:47:24.743Z,98883.56
2022-08-18T10:49:53.762Z,98897.66
2022-08-18T10:52:45.915Z,98896.25
2022-08-18T10:55:26.405Z,98895.88
2022-08-18T10:58:37.782Z,98890.25
2022-08-18T11:01:19.373Z,98898.66
2022-08-18T11:04:13.850Z,98891.09
2022-08-18T11:06:53.833Z,98889.75
2022-08-18T11:09:24.873Z,98886.28
2022-08-18T11:18:10.678Z,98877.69
2022-08-18T11:20:43.249Z,98874.94
2022-08-18T11:23:15.645Z,98882.69
2022-08-18T11:25:44.964Z,98869.38
2022-08-18T11:28:18.655Z,98863.00
2022-08-18T11:30:52.541Z,98851.94
2022-08-18T11:36:10.283Z,98855.63
2022-08-18T11:38:42.162Z,98855.69
2022-08-18T11:41:19.113Z,98849.63
2022-08-18T11:43:50.552Z,98856.09
2022-08-18T11:46:30.390Z,98855.22
2022-08-18T11:49:01.217Z,98855.00
2022-08-18T11:51:32.401Z,98862.97
2022-08-18T11:54:02.421Z,98859.06
2022-08-18T11:59:54.978Z,98867.16
2022-08-18T12:02:30.433Z,98874.63
2022-08-18T12:05:08.391Z,98872.22
2022-08-18T12:07:38.657Z,98863.44
2022-08-18T12:10:28.618Z,98857.50
2022-08-18T12:13:00.454Z,98859.31
2022-08-18T12:15:46.286Z,98865.19
2022-08-18T12:18:28.365Z,98863.75
2022-08-18T12:20:58.721Z,98855.28
2022-08-18T12:23:38.474Z,98850.13
2022-08-18T12:26:27.434Z,98838.38
2022-08-18T12:29:01.654Z,98839.84
2022-08-18T12:31:42.714Z,98838.56
2022-08-18T12:37:54.463Z,98830.41
2022-08-18T12:40:06.116Z,98821.75
2022-08-18T12:42:34.880Z,98823.19
2022-08-18T12:45:03.840Z,98819.44
2022-08-18T12:47:32.471Z,98821.72
2022-08-18T12:50:08.964Z,98809.41
2022-08-18T12:52:39.009Z,98798.59
2022-08-18T12:55:21.444Z,98779.63
2022-08-18T12:57:53.352Z,98773.88
2022-08-18T13:00:29.021Z,98779.25
2022-08-18T13:02:57.890Z,98779.78
2022-08-18T13:05:29.847Z,98785.91
2022-08-18T13:07:59.918Z,98785.84
2022-08-18T13:10:42.822Z,98789.66
2022-08-18T13:13:15.396Z,98790.63
2022-08-18T13:15:55.239Z,98784.00
2022-08-18T13:18:27.314Z,98788.63
2022-08-18T13:20:59.181Z,98788.69
2022-08-18T13:23:28.783Z,98792.63
2022-08-18T13:26:01.520Z,98792.59
2022-08-18T13:28:35.575Z,98804.34
2022-08-18T13:31:05.724Z,98795.63
2022-08-18T13:33:56.848Z,98816.38
2022-08-18T13:36:25.330Z,98811.69
2022-08-18T13:38:57.064Z,98815.81
2022-08-18T13:43:56.407Z,98818.34
2022-08-18T13:46:30.902Z,98820.56
2022-08-18T13:49:03.038Z,98820.19
2022-08-18T13:51:33.110Z,98823.00
2022-08-18T13:56:51.333Z,98814.63
2022-08-18T13:59:21.737Z,98817.16
2022-08-18T14:01:53.003Z,98805.19
2022-08-18T14:04:23.065Z,98814.53
2022-08-18T14:06:59.941Z,98795.41
2022-08-18T14:09:37.721Z,98794.69
2022-08-18T14:12:15.334Z,98794.91
2022-08-18T14:14:50.041Z,98789.00
2022-08-18T14:17:22.337Z,98806.34
2022-08-18T14:20:10.159Z,98815.78
2022-08-18T14:22:57.978Z,98808.38
2022-08-18T14:25:43.928Z,98799.44
2022-08-18T14:28:12.222Z,98798.97
2022-08-18T14:30:40.772Z,98803.78
2022-08-18T14:33:21.729Z,98800.78
2022-08-18T14:36:07.031Z,98800.34
2022-08-18T14:38:39.882Z,98807.19
2022-08-18T14:41:11.453Z,98805.78
2022-08-18T14:44:04.560Z,98817.13
2022-08-18T14:46:30.686Z,98820.28
2022-08-18T14:49:04.118Z,98822.88
2022-08-18T14:51:33.614Z,98822.16
2022-08-18T14:54:05.373Z,98808.81
2022-08-18T14:56:38.780Z,98812.03
2022-08-18T14:59:08.302Z,98807.28
2022-08-18T15:01:36.740Z,98808.63
2022-08-18T15:04:18.690Z,98795.06
2022-08-18T15:06:56.664Z,98811.03
2022-08-18T15:09:27.522Z,98796.53
2022-08-18T15:11:58.475Z,98788.25
2022-08-18T15:14:33.140Z,98782.44
2022-08-18T15:17:03.113Z,98779.75
2022-08-18T15:20:00.034Z,98788.88
2022-08-18T15:22:45.312Z,98784.47
2022-08-18T15:25:31.946Z,98784.31
2022-08-18T15:28:00.504Z,98777.44
2022-08-18T15:30:30.548Z,98782.44
2022-08-18T15:32:59.151Z,98778.63
2022-08-18T15:35:32.385Z,98780.13
2022-08-18T15:38:05.579Z,98767.50
2022-08-18T15:40:41.296Z,98762.41
2022-08-18T15:43:11.402Z,98761.66
2022-08-18T15:45:57.793Z,98753.69
2022-08-18T15:48:35.645Z,98762.34
2022-08-18T15:51:11.927Z,98758.16
2022-08-18T15:53:46.530Z,98758.94
2022-08-18T15:56:21.154Z,98755.91
2022-08-18T15:58:50.635Z,98735.31
2022-08-18T16:01:30.260Z,98726.53
2022-08-18T16:04:01.372Z,98718.63
2022-08-18T16:06:32.342Z,98716.09
2022-08-18T16:09:02.056Z,98733.31
2022-08-18T16:11:34.183Z,98776.56
2022-08-18T16:14:02.344Z,98758.25
2022-08-18T16:16:36.050Z,98749.75
2022-08-18T16:19:14.630Z,98753.97
2022-08-18T16:21:42.788Z,98734.41
2022-08-18T16:24:21.779Z,98740.28
2022-08-18T16:26:52.580Z,98744.41
2022-08-18T16:29:21.274Z,98738.94
2022-08-18T16:31:52.499Z,98728.81
2022-08-18T16:34:21.751Z,98716.47
2022-08-18T16:36:54.695Z,98716.25
2022-08-18T16:39:29.491Z,98718.88
2022-08-18T16:42:04.024Z,98702.50
2022-08-18T16:44:32.784Z,98712.28
2022-08-18T16:47:01.691Z,98734.94
2022-08-18T16:49:29.940Z,98762.97
2022-08-18T16:51:58.056Z,98755.66
2022-08-18T16:54:29.284Z,98758.16
2022-08-18T16:57:02.007Z,98743.91
2022-08-18T16:59:47.432Z,98724.56
2022-08-18T17:02:32.928Z,98720.53
2022-08-18T17:05:02.858Z,98725.41
2022-08-18T17:07:31.886Z,98757.38
2022-08-18T17:10:00.014Z,98775.97
2022-08-18T17:12:29.831Z,98774.09
2022-08-18T17:14:58.051Z,98759.06
2022-08-18T17:17:26.149Z,98761.03
2022-08-18T17:19:54.285Z,98775.81
2022-08-18T17:22:25.275Z,98774.81
2022-08-18T17:24:55.696Z,98762.59
2022-08-18T17:27:37.290Z,98768.66
2022-08-18T17:30:10.727Z,98781.38
2022-08-18T17:32:42.913Z,98772.28
2022-08-18T17:35:20.620Z,98766.28
2022-08-18T17:38:02.496Z,98767.97
2022-08-18T17:40:39.172Z,98770.72
2022-08-18T17:43:11.183Z,98770.78
2022-08-18T17:45:39.321Z,98768.84
2022-08-18T17:48:11.165Z,98758.41
2022-08-18T17:50:59.103Z,98769.66
2022-08-18T17:53:27.262Z,98772.41
2022-08-18T17:56:00.066Z,98759.25
2022-08-18T17:58:34.323Z,98751.81
2022-08-18T18:01:04.519Z,98758.69
2022-08-18T18:03:34.141Z,98762.28
2022-08-18T18:06:18.550Z,98770.47
2022-08-18T18:08:52.039Z,98758.97
2022-08-18T18:11:27.183Z,98752.38
2022-08-18T18:13:56.937Z,98748.25
2022-08-18T18:16:29.793Z,98740.59
2022-08-18T18:19:02.802Z,98735.09
2022-08-18T18:21:56.564Z,98730.44
2022-08-18T18:24:24.055Z,98728.22
2022-08-18T18:26:53.237Z,98732.91
2022-08-18T18:29:29.123Z,98722.22
2022-08-18T18:32:03.182Z,98720.28
2022-08-18T18:34:38.038Z,98714.53
2022-08-18T18:37:08.132Z,98714.81
2022-08-18T18:39:37.851Z,98712.91
2022-08-18T18:42:18.035Z,98712.88
2022-08-18T18:44:55.971Z,98701.66
2022-08-18T18:47:43.244Z,98712.88
2022-08-18T18:50:18.560Z,98707.16
2022-08-18T18:52:55.057Z,98719.19
2022-08-18T18:55:25.849Z,98722.47
2022-08-18T18:58:06.876Z,98713.19
2022-08-18T19:00:41.957Z,98724.41
2022-08-18T19:03:13.602Z,98725.25
2022-08-18T19:05:45.942Z,98722.78
2022-08-18T19:08:25.475Z,98719.22
2022-08-18T19:10:58.399Z,98721.41
2022-08-18T19:13:32.786Z,98727.44
2022-08-18T19:16:23.273Z,98724.69
2022-08-18T19:19:35.018Z,98725.50
2022-08-18T19:22:04.976Z,98722.78
2022-08-18T19:24:38.669Z,98725.78
2022-08-18T19:27:08.658Z,98720.84
2022-08-18T19:29:41.616Z,98712.63
2022-08-18T19:32:16.804Z,98710.16
2022-08-18T19:34:52.509Z,98708.22
2022-08-18T19:37:32.587Z,98716.16
2022-08-18T19:40:07.308Z,98716.75
2022-08-18T19:42:41.095Z,98714.19
2022-08-18T19:45:17.160Z,98726.50
2022-08-18T19:47:51.065Z,98730.38
2022-08-18T19:50:26.117Z,98731.41
2022-08-18T19:53:33.579Z,98742.16
2022-08-18T19:56:21.706Z,98737.72
2022-08-18T19:59:18.602Z,98738.28
2022-08-18T20:01:55.325Z,98744.91
2022-08-18T20:04:36.848Z,98745.41
2022-08-18T20:07:38.000Z,98751.94
2022-08-18T20:10:28.511Z,98748.66
2022-08-18T20:13:11.167Z,98753.91
2022-08-18T20:16:00.424Z,98747.59
2022-08-18T20:18:34.625Z,98751.16
2022-08-18T20:21:39.855Z,98758.53
2022-08-18T20:24:33.873Z,98753.22
2022-08-18T20:27:32.814Z,98763.19
2022-08-18T20:30:26.241Z,98774.31
2022-08-18T20:33:15.413Z,98768.34
2022-08-18T20:35:47.351Z,98770.16
2022-08-18T20:38:21.650Z,98777.84
2022-08-18T20:40:52.355Z,98774.31
2022-08-18T20:43:27.510Z,98779.34
2022-08-18T20:46:13.676Z,98771.84
2022-08-18T20:49:06.026Z,98765.56
2022-08-18T20:51:41.072Z,98772.19
2022-08-18T20:54:19.548Z,98771.09
2022-08-18T20:56:52.424Z,98771.38
2022-08-18T20:59:24.048Z,98753.47
2022-08-18T21:02:00.985Z,98752.22
2022-08-18T21:04:46.902Z,98758.16
2022-08-18T21:07:36.169Z,98763.69
2022-08-18T21:10:12.273Z,98762.75
2022-08-18T21:12:52.617Z,98760.09
2022-08-18T21:15:23.892Z,98754.66
2022-08-18T21:17:58.806Z,98766.50
2022-08-18T21:20:28.186Z,98767.00
2022-08-18T21:23:04.153Z,98777.59
2022-08-18T21:25:33.764Z,98765.00
2022-08-18T21:28:04.103Z,98763.91
2022-08-18T21:30:32.829Z,98762.50
2022-08-18T21:33:02.107Z,98777.59
2022-08-18T21:35:32.812Z,98777.53
2022-08-18T21:38:04.083Z,98766.03
2022-08-18T21:40:39.430Z,98767.97
2022-08-18T21:43:10.739Z,98767.63
2022-08-18T21:45:47.582Z,98763.19
2022-08-18T21:48:16.191Z,98760.81
2022-08-18T21:50:51.476Z,98764.22
2022-08-18T21:53:23.520Z,98759.78
2022-08-18T21:55:55.074Z,98759.03
2022-08-18T21:58:32.946Z,98749.19
2022-08-18T22:01:21.994Z,98768.69
2022-08-18T22:03:53.172Z,98748.38
2022-08-18T22:06:28.470Z,98753.94
2022-08-18T22:08:59.912Z,98760.91
2022-08-18T22:12:00.902Z,98758.78
2022-08-18T22:14:53.618Z,98769.78
2022-08-18T22:17:33.653Z,98765.94
2022-08-18T22:20:37.190Z,98780.66
2022-08-18T22:23:28.018Z,98780.34
2022-08-18T22:26:07.283Z,98784.47
2022-08-18T22:28:36.841Z,98799.31
2022-08-18T22:31:06.534Z,98796.81
2022-08-18T22:33:34.643Z,98790.00
2022-08-18T22:36:03.914Z,98783.59
2022-08-18T22:38:32.298Z,98798.66
2022-08-18T22:41:00.817Z,98795.00
2022-08-18T22:43:29.184Z,98809.44
2022-08-18T22:45:57.330Z,98790.81
2022-08-18T22:48:27.225Z,98788.34
2022-08-18T22:50:55.587Z,98793.91
2022-08-18T22:53:23.797Z,98795.66
2022-08-18T22:55:53.326Z,98795.72
2022-08-18T22:58:28.164Z,98797.34
2022-08-18T23:01:05.400Z,98784.84
2022-08-18T23:03:41.871Z,98779.31
2022-08-18T23:06:11.125Z,98783.41
2022-08-18T23:08:55.421Z,98783.13
2022-08-18T23:11:25.071Z,98778.59
2022-08-18T23:13:54.057Z,98775.28
2022-08-18T23:16:31.578Z,98768.47
2022-08-18T23:19:03.021Z,98773.84
2022-08-18T23:21:35.485Z,98777.59
2022-08-18T23:24:05.696Z,98779.31
2022-08-18T23:26:34.181Z,98767.31
2022-08-18T23:29:02.960Z,98770.13
2022-08-18T23:31:31.642Z,98772.13
2022-08-18T23:34:02.980Z,98765.63
2022-08-18T23:36:35.559Z,98769.22
2022-08-18T23:39:04.226Z,98774.34
2022-08-18T23:41:32.722Z,98783.25
2022-08-18T23:44:01.821Z,98779.97
2022-08-18T23:46:32.043Z,98780.75
2022-08-18T23:49:04.427Z,98780.34
2022-08-18T23:51:34.835Z,98773.41
2022-08-18T23:54:07.457Z,98766.19
2022-08-18T23:56:38.153Z,98764.59
2022-08-18T23:59:07.713Z,98760.59
